sensor_id;sensor_type;location;lat;lon;timestamp;P1;durP1;ratioP1;P2;durP2;ratioP2
23155;SDS011;11746;50.876;4.246;2023-04-02T00:00:34;28.98;;;21.63;;
23155;SDS011;11746;50.876;4.246;2023-04-02T00:03:04;28.73;;;21.90;;
23155;SDS011;11746;50.876;4.246;2023-04-02T00:05:38;26.83;;;20.73;;
23155;SDS011;11746;50.876;4.246;2023-04-02T00:08:23;24.38;;;18.88;;
23155;SDS011;11746;50.876;4.246;2023-04-02T00:11:05;26.23;;;18.33;;
23155;SDS011;11746;50.876;4.246;2023-04-02T00:13:40;25.15;;;20.00;;
23155;SDS011;11746;50.876;4.246;2023-04-02T00:16:12;25.45;;;19.13;;
23155;SDS011;11746;50.876;4.246;2023-04-02T00:18:46;25.10;;;19.23;;
23155;SDS011;11746;50.876;4.246;2023-04-02T00:24:16;30.98;;;22.95;;
23155;SDS011;11746;50.876;4.246;2023-04-02T00:26:44;33.03;;;23.27;;
23155;SDS011;11746;50.876;4.246;2023-04-02T00:29:15;28.77;;;21.67;;
23155;SDS011;11746;50.876;4.246;2023-04-02T00:31:42;25.85;;;19.48;;
23155;SDS011;11746;50.876;4.246;2023-04-02T00:34:16;27.08;;;19.67;;
23155;SDS011;11746;50.876;4.246;2023-04-02T00:36:45;24.90;;;19.15;;
23155;SDS011;11746;50.876;4.246;2023-04-02T00:39:19;22.58;;;17.15;;
23155;SDS011;11746;50.876;4.246;2023-04-02T00:41:48;23.70;;;17.02;;
23155;SDS011;11746;50.876;4.246;2023-04-02T00:44:28;24.48;;;17.63;;
23155;SDS011;11746;50.876;4.246;2023-04-02T00:47:52;24.65;;;18.05;;
23155;SDS011;11746;50.876;4.246;2023-04-02T00:50:04;29.27;;;18.90;;
23155;SDS011;11746;50.876;4.246;2023-04-02T00:52:40;26.50;;;19.73;;
23155;SDS011;11746;50.876;4.246;2023-04-02T00:55:12;25.58;;;18.73;;
23155;SDS011;11746;50.876;4.246;2023-04-02T00:57:47;23.60;;;17.83;;
23155;SDS011;11746;50.876;4.246;2023-04-02T01:05:41;17.63;;;14.57;;
23155;SDS011;11746;50.876;4.246;2023-04-02T01:21:56;28.55;;;21.08;;
23155;SDS011;11746;50.876;4.246;2023-04-02T01:24:46;19.08;;;15.15;;
23155;SDS011;11746;50.876;4.246;2023-04-02T01:29:50;18.83;;;12.02;;
23155;SDS011;11746;50.876;4.246;2023-04-02T01:32:20;14.20;;;10.80;;
23155;SDS011;11746;50.876;4.246;2023-04-02T01:34:50;13.95;;;10.77;;
23155;SDS011;11746;50.876;4.246;2023-04-02T01:42:20;16.92;;;12.52;;
23155;SDS011;11746;50.876;4.246;2023-04-02T01:45:02;16.75;;;12.57;;
23155;SDS011;11746;50.876;4.246;2023-04-02T01:47:32;15.82;;;12.85;;
23155;SDS011;11746;50.876;4.246;2023-04-02T01:50:01;15.90;;;12.15;;
23155;SDS011;11746;50.876;4.246;2023-04-02T01:52:41;15.85;;;12.32;;
23155;SDS011;11746;50.876;4.246;2023-04-02T01:55:11;16.58;;;12.10;;
23155;SDS011;11746;50.876;4.246;2023-04-02T01:57:43;15.07;;;11.38;;
23155;SDS011;11746;50.876;4.246;2023-04-02T02:00:12;13.43;;;10.45;;
23155;SDS011;11746;50.876;4.246;2023-04-02T02:02:40;15.50;;;11.07;;
23155;SDS011;11746;50.876;4.246;2023-04-02T02:05:11;13.18;;;10.35;;
23155;SDS011;11746;50.876;4.246;2023-04-02T02:07:39;12.63;;;9.30;;
23155;SDS011;11746;50.876;4.246;2023-04-02T02:10:05;11.90;;;9.73;;
23155;SDS011;11746;50.876;4.246;2023-04-02T02:12:38;12.82;;;9.52;;
23155;SDS011;11746;50.876;4.246;2023-04-02T02:15:11;12.48;;;9.80;;
23155;SDS011;11746;50.876;4.246;2023-04-02T02:17:47;12.68;;;10.15;;
23155;SDS011;11746;50.876;4.246;2023-04-02T02:20:13;14.30;;;10.43;;
23155;SDS011;11746;50.876;4.246;2023-04-02T02:22:44;13.68;;;10.30;;
23155;SDS011;11746;50.876;4.246;2023-04-02T02:25:13;12.73;;;9.98;;
23155;SDS011;11746;50.876;4.246;2023-04-02T02:30:35;13.82;;;11.07;;
23155;SDS011;11746;50.876;4.246;2023-04-02T02:33:27;14.68;;;11.43;;
23155;SDS011;11746;50.876;4.246;2023-04-02T02:36:12;19.13;;;13.50;;
23155;SDS011;11746;50.876;4.246;2023-04-02T02:39:23;19.77;;;15.18;;
23155;SDS011;11746;50.876;4.246;2023-04-02T02:41:56;18.73;;;14.02;;
23155;SDS011;11746;50.876;4.246;2023-04-02T02:44:27;19.63;;;13.98;;
23155;SDS011;11746;50.876;4.246;2023-04-02T02:46:57;21.48;;;17.02;;
23155;SDS011;11746;50.876;4.246;2023-04-02T02:49:31;23.73;;;17.45;;
23155;SDS011;11746;50.876;4.246;2023-04-02T02:52:08;21.77;;;16.88;;
23155;SDS011;11746;50.876;4.246;2023-04-02T02:55:03;19.20;;;15.15;;
23155;SDS011;11746;50.876;4.246;2023-04-02T02:57:31;18.15;;;13.55;;
23155;SDS011;11746;50.876;4.246;2023-04-02T03:00:02;17.30;;;13.45;;
23155;SDS011;11746;50.876;4.246;2023-04-02T03:02:33;16.67;;;13.77;;
23155;SDS011;11746;50.876;4.246;2023-04-02T03:05:04;17.42;;;13.52;;
23155;SDS011;11746;50.876;4.246;2023-04-02T03:07:33;18.67;;;13.52;;
23155;SDS011;11746;50.876;4.246;2023-04-02T03:20:55;17.88;;;13.90;;
23155;SDS011;11746;50.876;4.246;2023-04-02T03:23:41;16.48;;;13.15;;
23155;SDS011;11746;50.876;4.246;2023-04-02T03:26:16;16.25;;;13.07;;
23155;SDS011;11746;50.876;4.246;2023-04-02T03:28:49;20.90;;;16.00;;
23155;SDS011;11746;50.876;4.246;2023-04-02T03:31:24;20.08;;;15.23;;
23155;SDS011;11746;50.876;4.246;2023-04-02T03:33:58;19.25;;;14.95;;
23155;SDS011;11746;50.876;4.246;2023-04-02T03:42:22;21.50;;;17.17;;
23155;SDS011;11746;50.876;4.246;2023-04-02T03:45:02;22.80;;;17.83;;
23155;SDS011;11746;50.876;4.246;2023-04-02T03:50:09;27.13;;;19.80;;
23155;SDS011;11746;50.876;4.246;2023-04-02T03:52:48;27.35;;;20.42;;
23155;SDS011;11746;50.876;4.246;2023-04-02T03:55:17;22.98;;;17.92;;
23155;SDS011;11746;50.876;4.246;2023-04-02T04:02:47;20.42;;;15.07;;
23155;SDS011;11746;50.876;4.246;2023-04-02T04:05:25;17.95;;;13.68;;
23155;SDS011;11746;50.876;4.246;2023-04-02T04:07:53;18.35;;;14.20;;
23155;SDS011;11746;50.876;4.246;2023-04-02T04:10:24;16.05;;;13.20;;
23155;SDS011;11746;50.876;4.246;2023-04-02T04:12:52;17.45;;;12.98;;
23155;SDS011;11746;50.876;4.246;2023-04-02T04:18:19;17.13;;;12.93;;
23155;SDS011;11746;50.876;4.246;2023-04-02T04:21:02;17.73;;;13.15;;
23155;SDS011;11746;50.876;4.246;2023-04-02T04:23:36;16.27;;;13.05;;
23155;SDS011;11746;50.876;4.246;2023-04-02T04:31:32;26.88;;;19.48;;
23155;SDS011;11746;50.876;4.246;2023-04-02T04:34:07;28.65;;;20.45;;
23155;SDS011;11746;50.876;4.246;2023-04-02T04:36:47;29.85;;;19.08;;
23155;SDS011;11746;50.876;4.246;2023-04-02T04:39:28;27.85;;;20.52;;
23155;SDS011;11746;50.876;4.246;2023-04-02T04:42:11;32.85;;;22.20;;
23155;SDS011;11746;50.876;4.246;2023-04-02T04:47:41;29.15;;;21.02;;
23155;SDS011;11746;50.876;4.246;2023-04-02T04:52:45;32.55;;;20.27;;
23155;SDS011;11746;50.876;4.246;2023-04-02T04:55:26;32.33;;;21.92;;
23155;SDS011;11746;50.876;4.246;2023-04-02T04:57:57;28.10;;;19.40;;
23155;SDS011;11746;50.876;4.246;2023-04-02T05:03:07;30.75;;;19.55;;
23155;SDS011;11746;50.876;4.246;2023-04-02T05:05:44;28.95;;;19.65;;
23155;SDS011;11746;50.876;4.246;2023-04-02T05:08:12;25.52;;;18.38;;
23155;SDS011;11746;50.876;4.246;2023-04-02T05:11:00;27.38;;;18.98;;
23155;SDS011;11746;50.876;4.246;2023-04-02T05:13:36;26.52;;;18.38;;
23155;SDS011;11746;50.876;4.246;2023-04-02T05:16:20;26.10;;;17.00;;
23155;SDS011;11746;50.876;4.246;2023-04-02T05:29:45;26.13;;;18.63;;
23155;SDS011;11746;50.876;4.246;2023-04-02T05:32:24;28.38;;;18.90;;
23155;SDS011;11746;50.876;4.246;2023-04-02T05:34:55;30.45;;;18.88;;
23155;SDS011;11746;50.876;4.246;2023-04-02T05:37:22;24.67;;;17.85;;
23155;SDS011;11746;50.876;4.246;2023-04-02T05:39:55;25.50;;;18.00;;
23155;SDS011;11746;50.876;4.246;2023-04-02T05:42:23;26.52;;;17.65;;
23155;SDS011;11746;50.876;4.246;2023-04-02T05:45:07;26.25;;;18.50;;
23155;SDS011;11746;50.876;4.246;2023-04-02T05:47:54;23.85;;;17.83;;
23155;SDS011;11746;50.876;4.246;2023-04-02T05:50:31;29.15;;;19.23;;
23155;SDS011;11746;50.876;4.246;2023-04-02T05:55:40;24.15;;;17.88;;
23155;SDS011;11746;50.876;4.246;2023-04-02T05:58:15;25.65;;;18.92;;
23155;SDS011;11746;50.876;4.246;2023-04-02T06:00:57;25.38;;;17.83;;
23155;SDS011;11746;50.876;4.246;2023-04-02T06:06:18;27.25;;;19.50;;
23155;SDS011;11746;50.876;4.246;2023-04-02T06:09:08;26.40;;;19.42;;
23155;SDS011;11746;50.876;4.246;2023-04-02T06:12:02;26.30;;;18.92;;
23155;SDS011;11746;50.876;4.246;2023-04-02T06:14:34;25.25;;;18.58;;
23155;SDS011;11746;50.876;4.246;2023-04-02T06:17:00;25.65;;;18.73;;
23155;SDS011;11746;50.876;4.246;2023-04-02T06:19:26;26.30;;;19.10;;
23155;SDS011;11746;50.876;4.246;2023-04-02T06:21:58;26.05;;;19.10;;
23155;SDS011;11746;50.876;4.246;2023-04-02T06:24:34;27.98;;;18.83;;
23155;SDS011;11746;50.876;4.246;2023-04-02T06:27:05;29.55;;;19.13;;
23155;SDS011;11746;50.876;4.246;2023-04-02T06:29:37;22.73;;;18.42;;
23155;SDS011;11746;50.876;4.246;2023-04-02T06:32:06;25.15;;;18.50;;
23155;SDS011;11746;50.876;4.246;2023-04-02T06:34:35;27.00;;;19.20;;
23155;SDS011;11746;50.876;4.246;2023-04-02T06:37:04;25.08;;;18.70;;
23155;SDS011;11746;50.876;4.246;2023-04-02T06:39:49;28.42;;;18.90;;
23155;SDS011;11746;50.876;4.246;2023-04-02T06:42:16;27.02;;;18.23;;
23155;SDS011;11746;50.876;4.246;2023-04-02T06:44:45;22.98;;;16.77;;
23155;SDS011;11746;50.876;4.246;2023-04-02T06:50:05;22.35;;;16.10;;
23155;SDS011;11746;50.876;4.246;2023-04-02T06:52:46;22.27;;;16.35;;
23155;SDS011;11746;50.876;4.246;2023-04-02T06:58:05;25.15;;;18.15;;
23155;SDS011;11746;50.876;4.246;2023-04-02T07:00:35;27.30;;;18.67;;
23155;SDS011;11746;50.876;4.246;2023-04-02T07:03:18;25.95;;;19.48;;
23155;SDS011;11746;50.876;4.246;2023-04-02T07:05:56;30.27;;;21.45;;
23155;SDS011;11746;50.876;4.246;2023-04-02T07:08:24;28.52;;;19.48;;
23155;SDS011;11746;50.876;4.246;2023-04-02T07:10:50;23.48;;;17.50;;
23155;SDS011;11746;50.876;4.246;2023-04-02T07:13:20;25.70;;;17.63;;
23155;SDS011;11746;50.876;4.246;2023-04-02T07:15:52;19.35;;;16.00;;
23155;SDS011;11746;50.876;4.246;2023-04-02T07:18:23;20.75;;;15.35;;
23155;SDS011;11746;50.876;4.246;2023-04-02T07:20:52;23.33;;;14.55;;
23155;SDS011;11746;50.876;4.246;2023-04-02T07:23:18;18.13;;;14.35;;
23155;SDS011;11746;50.876;4.246;2023-04-02T07:25:45;18.00;;;14.13;;
23155;SDS011;11746;50.876;4.246;2023-04-02T07:28:12;17.23;;;13.75;;
23155;SDS011;11746;50.876;4.246;2023-04-02T07:30:41;19.00;;;13.32;;
23155;SDS011;11746;50.876;4.246;2023-04-02T07:33:13;17.98;;;12.82;;
23155;SDS011;11746;50.876;4.246;2023-04-02T07:35:42;15.73;;;12.35;;
23155;SDS011;11746;50.876;4.246;2023-04-02T07:38:08;18.13;;;11.88;;
23155;SDS011;11746;50.876;4.246;2023-04-02T07:40:34;17.90;;;11.93;;
23155;SDS011;11746;50.876;4.246;2023-04-02T07:43:03;16.75;;;12.10;;
23155;SDS011;11746;50.876;4.246;2023-04-02T07:45:30;16.10;;;12.07;;
23155;SDS011;11746;50.876;4.246;2023-04-02T07:47:56;17.17;;;13.38;;
23155;SDS011;11746;50.876;4.246;2023-04-02T07:50:24;18.38;;;13.38;;
23155;SDS011;11746;50.876;4.246;2023-04-02T07:52:52;20.05;;;14.23;;
23155;SDS011;11746;50.876;4.246;2023-04-02T07:55:18;19.33;;;13.65;;
23155;SDS011;11746;50.876;4.246;2023-04-02T07:57:46;16.45;;;13.07;;
23155;SDS011;11746;50.876;4.246;2023-04-02T08:00:22;22.50;;;14.20;;
23155;SDS011;11746;50.876;4.246;2023-04-02T08:02:49;18.15;;;13.50;;
23155;SDS011;11746;50.876;4.246;2023-04-02T08:05:15;21.63;;;15.80;;
23155;SDS011;11746;50.876;4.246;2023-04-02T08:07:42;19.92;;;14.90;;
23155;SDS011;11746;50.876;4.246;2023-04-02T08:10:08;18.60;;;14.60;;
23155;SDS011;11746;50.876;4.246;2023-04-02T08:12:38;23.20;;;15.30;;
23155;SDS011;11746;50.876;4.246;2023-04-02T08:15:03;21.35;;;16.25;;
23155;SDS011;11746;50.876;4.246;2023-04-02T08:17:30;22.83;;;16.48;;
23155;SDS011;11746;50.876;4.246;2023-04-02T08:19:57;22.35;;;16.33;;
23155;SDS011;11746;50.876;4.246;2023-04-02T08:22:26;22.98;;;16.48;;
23155;SDS011;11746;50.876;4.246;2023-04-02T08:24:55;22.73;;;17.02;;
23155;SDS011;11746;50.876;4.246;2023-04-02T08:27:24;27.05;;;18.15;;
23155;SDS011;11746;50.876;4.246;2023-04-02T08:29:50;28.88;;;19.52;;
23155;SDS011;11746;50.876;4.246;2023-04-02T08:32:16;23.92;;;17.75;;
23155;SDS011;11746;50.876;4.246;2023-04-02T08:34:43;27.45;;;18.08;;
23155;SDS011;11746;50.876;4.246;2023-04-02T08:37:12;25.50;;;17.60;;
23155;SDS011;11746;50.876;4.246;2023-04-02T08:39:40;28.25;;;18.90;;
23155;SDS011;11746;50.876;4.246;2023-04-02T08:42:21;26.73;;;17.65;;
23155;SDS011;11746;50.876;4.246;2023-04-02T08:45:16;23.73;;;17.67;;
23155;SDS011;11746;50.876;4.246;2023-04-02T08:48:16;21.58;;;15.70;;
23155;SDS011;11746;50.876;4.246;2023-04-02T08:50:42;17.85;;;14.05;;
23155;SDS011;11746;50.876;4.246;2023-04-02T08:56:03;20.98;;;14.68;;
23155;SDS011;11746;50.876;4.246;2023-04-02T09:04:22;21.45;;;14.60;;
23155;SDS011;11746;50.876;4.246;2023-04-02T09:06:50;20.85;;;14.50;;
23155;SDS011;11746;50.876;4.246;2023-04-02T09:09:18;20.95;;;15.02;;
23155;SDS011;11746;50.876;4.246;2023-04-02T09:11:56;22.33;;;15.27;;
23155;SDS011;11746;50.876;4.246;2023-04-02T09:17:25;20.20;;;14.40;;
23155;SDS011;11746;50.876;4.246;2023-04-02T09:24:57;25.70;;;17.33;;
23155;SDS011;11746;50.876;4.246;2023-04-02T09:27:29;23.65;;;17.70;;
23155;SDS011;11746;50.876;4.246;2023-04-02T09:29:57;24.30;;;17.45;;
23155;SDS011;11746;50.876;4.246;2023-04-02T09:32:37;24.60;;;16.88;;
23155;SDS011;11746;50.876;4.246;2023-04-02T09:35:12;22.45;;;14.88;;
23155;SDS011;11746;50.876;4.246;2023-04-02T09:37:44;20.20;;;14.83;;
23155;SDS011;11746;50.876;4.246;2023-04-02T09:43:00;18.10;;;13.35;;
23155;SDS011;11746;50.876;4.246;2023-04-02T09:45:56;20.58;;;13.25;;
23155;SDS011;11746;50.876;4.246;2023-04-02T09:48:39;20.75;;;13.55;;
23155;SDS011;11746;50.876;4.246;2023-04-02T09:53:44;19.60;;;13.45;;
23155;SDS011;11746;50.876;4.246;2023-04-02T09:59:00;17.92;;;13.35;;
23155;SDS011;11746;50.876;4.246;2023-04-02T10:01:32;17.60;;;12.95;;
23155;SDS011;11746;50.876;4.246;2023-04-02T10:04:03;16.85;;;13.10;;
23155;SDS011;11746;50.876;4.246;2023-04-02T10:06:30;18.40;;;13.25;;
23155;SDS011;11746;50.876;4.246;2023-04-02T10:09:02;17.10;;;12.65;;
23155;SDS011;11746;50.876;4.246;2023-04-02T10:11:45;17.38;;;13.43;;
23155;SDS011;11746;50.876;4.246;2023-04-02T10:14:17;17.50;;;13.32;;
23155;SDS011;11746;50.876;4.246;2023-04-02T10:17:16;17.77;;;13.15;;
23155;SDS011;11746;50.876;4.246;2023-04-02T10:19:52;16.05;;;12.20;;
23155;SDS011;11746;50.876;4.246;2023-04-02T10:22:22;17.25;;;12.43;;
23155;SDS011;11746;50.876;4.246;2023-04-02T10:24:50;16.63;;;12.07;;
23155;SDS011;11746;50.876;4.246;2023-04-02T10:40:54;10.38;;;8.60;;
23155;SDS011;11746;50.876;4.246;2023-04-02T10:49:00;10.90;;;8.60;;
23155;SDS011;11746;50.876;4.246;2023-04-02T10:51:43;9.90;;;8.00;;
23155;SDS011;11746;50.876;4.246;2023-04-02T10:57:04;11.38;;;8.20;;
23155;SDS011;11746;50.876;4.246;2023-04-02T10:59:58;11.55;;;7.75;;
23155;SDS011;11746;50.876;4.246;2023-04-02T11:02:39;13.75;;;7.72;;
23155;SDS011;11746;50.876;4.246;2023-04-02T11:05:31;11.05;;;7.22;;
23155;SDS011;11746;50.876;4.246;2023-04-02T11:10:59;9.98;;;7.07;;
23155;SDS011;11746;50.876;4.246;2023-04-02T11:16:02;8.90;;;7.15;;
23155;SDS011;11746;50.876;4.246;2023-04-02T11:18:31;10.60;;;6.30;;
23155;SDS011;11746;50.876;4.246;2023-04-02T11:24:03;8.02;;;6.32;;
23155;SDS011;11746;50.876;4.246;2023-04-02T11:26:31;9.13;;;6.45;;
23155;SDS011;11746;50.876;4.246;2023-04-02T11:31:40;9.75;;;6.97;;
23155;SDS011;11746;50.876;4.246;2023-04-02T11:34:11;11.20;;;6.82;;
23155;SDS011;11746;50.876;4.246;2023-04-02T11:37:00;9.93;;;5.65;;
23155;SDS011;11746;50.876;4.246;2023-04-02T11:39:44;8.30;;;5.75;;
23155;SDS011;11746;50.876;4.246;2023-04-02T11:44:46;7.95;;;5.07;;
23155;SDS011;11746;50.876;4.246;2023-04-02T11:47:24;7.80;;;5.00;;
23155;SDS011;11746;50.876;4.246;2023-04-02T11:52:26;10.65;;;4.20;;
23155;SDS011;11746;50.876;4.246;2023-04-02T11:55:16;11.05;;;4.63;;
23155;SDS011;11746;50.876;4.246;2023-04-02T12:03:32;8.88;;;4.50;;
23155;SDS011;11746;50.876;4.246;2023-04-02T12:08:47;7.32;;;4.05;;
23155;SDS011;11746;50.876;4.246;2023-04-02T12:11:34;6.30;;;4.60;;
23155;SDS011;11746;50.876;4.246;2023-04-02T12:19:49;7.70;;;5.07;;
23155;SDS011;11746;50.876;4.246;2023-04-02T12:22:26;7.65;;;4.55;;
23155;SDS011;11746;50.876;4.246;2023-04-02T12:24:56;6.88;;;4.53;;
23155;SDS011;11746;50.876;4.246;2023-04-02T12:27:25;7.30;;;4.03;;
23155;SDS011;11746;50.876;4.246;2023-04-02T12:29:58;8.32;;;4.65;;
23155;SDS011;11746;50.876;4.246;2023-04-02T12:32:43;6.00;;;4.47;;
23155;SDS011;11746;50.876;4.246;2023-04-02T12:35:25;6.20;;;4.18;;
23155;SDS011;11746;50.876;4.246;2023-04-02T12:37:54;7.00;;;4.43;;
23155;SDS011;11746;50.876;4.246;2023-04-02T12:40:21;4.78;;;4.05;;
23155;SDS011;11746;50.876;4.246;2023-04-02T12:42:47;6.50;;;4.28;;
23155;SDS011;11746;50.876;4.246;2023-04-02T12:45:23;6.70;;;4.00;;
23155;SDS011;11746;50.876;4.246;2023-04-02T12:47:54;5.63;;;3.92;;
23155;SDS011;11746;50.876;4.246;2023-04-02T12:50:21;6.25;;;4.55;;
23155;SDS011;11746;50.876;4.246;2023-04-02T12:52:49;6.97;;;4.90;;
23155;SDS011;11746;50.876;4.246;2023-04-02T12:55:23;8.10;;;5.25;;
23155;SDS011;11746;50.876;4.246;2023-04-02T12:57:54;8.10;;;5.22;;
23155;SDS011;11746;50.876;4.246;2023-04-02T13:05:36;8.23;;;4.75;;
23155;SDS011;11746;50.876;4.246;2023-04-02T13:08:16;5.07;;;3.05;;
23155;SDS011;11746;50.876;4.246;2023-04-02T13:11:00;5.47;;;2.90;;
23155;SDS011;11746;50.876;4.246;2023-04-02T13:13:30;6.40;;;3.33;;
23155;SDS011;11746;50.876;4.246;2023-04-02T13:15:59;6.20;;;3.33;;
23155;SDS011;11746;50.876;4.246;2023-04-02T13:18:31;5.32;;;3.50;;
23155;SDS011;11746;50.876;4.246;2023-04-02T13:21:03;6.53;;;3.92;;
23155;SDS011;11746;50.876;4.246;2023-04-02T13:26:01;7.07;;;4.03;;
23155;SDS011;11746;50.876;4.246;2023-04-02T13:28:28;8.10;;;4.60;;
23155;SDS011;11746;50.876;4.246;2023-04-02T13:30:56;6.00;;;3.70;;
23155;SDS011;11746;50.876;4.246;2023-04-02T13:33:24;8.20;;;3.72;;
23155;SDS011;11746;50.876;4.246;2023-04-02T13:35:49;6.53;;;3.42;;
23155;SDS011;11746;50.876;4.246;2023-04-02T13:38:20;5.75;;;3.58;;
23155;SDS011;11746;50.876;4.246;2023-04-02T13:40:46;5.75;;;3.42;;
23155;SDS011;11746;50.876;4.246;2023-04-02T13:43:20;5.55;;;3.72;;
23155;SDS011;11746;50.876;4.246;2023-04-02T13:45:47;5.95;;;3.60;;
23155;SDS011;11746;50.876;4.246;2023-04-02T13:48:15;5.50;;;3.40;;
23155;SDS011;11746;50.876;4.246;2023-04-02T13:50:42;5.13;;;3.05;;
23155;SDS011;11746;50.876;4.246;2023-04-02T13:53:12;5.60;;;2.88;;
23155;SDS011;11746;50.876;4.246;2023-04-02T13:55:44;8.25;;;3.17;;
23155;SDS011;11746;50.876;4.246;2023-04-02T13:58:10;5.10;;;3.08;;
23155;SDS011;11746;50.876;4.246;2023-04-02T14:00:36;5.88;;;3.35;;
23155;SDS011;11746;50.876;4.246;2023-04-02T14:03:07;6.78;;;3.28;;
23155;SDS011;11746;50.876;4.246;2023-04-02T14:11:27;6.50;;;3.35;;
23155;SDS011;11746;50.876;4.246;2023-04-02T14:17:06;6.00;;;2.80;;
23155;SDS011;11746;50.876;4.246;2023-04-02T14:20:00;3.85;;;2.53;;
23155;SDS011;11746;50.876;4.246;2023-04-02T14:42:02;5.70;;;3.30;;
23155;SDS011;11746;50.876;4.246;2023-04-02T14:44:32;9.40;;;3.50;;
23155;SDS011;11746;50.876;4.246;2023-04-02T14:47:13;5.63;;;3.33;;
23155;SDS011;11746;50.876;4.246;2023-04-02T14:49:45;5.85;;;3.60;;
23155;SDS011;11746;50.876;4.246;2023-04-02T14:52:18;6.85;;;3.90;;
23155;SDS011;11746;50.876;4.246;2023-04-02T14:55:25;7.80;;;4.10;;
23155;SDS011;11746;50.876;4.246;2023-04-02T14:57:50;5.45;;;3.35;;
23155;SDS011;11746;50.876;4.246;2023-04-02T15:03:07;4.03;;;3.60;;
23155;SDS011;11746;50.876;4.246;2023-04-02T15:05:56;7.50;;;4.53;;
23155;SDS011;11746;50.876;4.246;2023-04-02T15:08:40;7.18;;;4.47;;
23155;SDS011;11746;50.876;4.246;2023-04-02T15:11:15;6.55;;;4.05;;
23155;SDS011;11746;50.876;4.246;2023-04-02T15:13:50;8.25;;;4.28;;
23155;SDS011;11746;50.876;4.246;2023-04-02T15:16:20;5.20;;;4.03;;
23155;SDS011;11746;50.876;4.246;2023-04-02T15:18:52;5.25;;;4.00;;
23155;SDS011;11746;50.876;4.246;2023-04-02T15:29:17;6.35;;;3.83;;
23155;SDS011;11746;50.876;4.246;2023-04-02T15:32:05;8.07;;;4.25;;
23155;SDS011;11746;50.876;4.246;2023-04-02T15:34:56;5.43;;;4.03;;
23155;SDS011;11746;50.876;4.246;2023-04-02T15:46:52;7.10;;;4.05;;
23155;SDS011;11746;50.876;4.246;2023-04-02T15:54:52;7.07;;;5.13;;
23155;SDS011;11746;50.876;4.246;2023-04-02T16:00:32;7.13;;;4.60;;
23155;SDS011;11746;50.876;4.246;2023-04-02T16:03:43;7.22;;;4.75;;
23155;SDS011;11746;50.876;4.246;2023-04-02T16:06:19;7.25;;;4.78;;
23155;SDS011;11746;50.876;4.246;2023-04-02T16:11:38;7.55;;;4.90;;
23155;SDS011;11746;50.876;4.246;2023-04-02T16:14:14;6.20;;;4.35;;
23155;SDS011;11746;50.876;4.246;2023-04-02T16:16:58;10.07;;;4.95;;
23155;SDS011;11746;50.876;4.246;2023-04-02T16:19:34;9.30;;;5.05;;
23155;SDS011;11746;50.876;4.246;2023-04-02T16:22:07;9.20;;;5.60;;
23155;SDS011;11746;50.876;4.246;2023-04-02T16:24:35;7.25;;;5.53;;
23155;SDS011;11746;50.876;4.246;2023-04-02T16:32:16;7.03;;;3.30;;
23155;SDS011;11746;50.876;4.246;2023-04-02T16:40:40;3.92;;;2.30;;
23155;SDS011;11746;50.876;4.246;2023-04-02T16:43:24;6.28;;;2.22;;
23155;SDS011;11746;50.876;4.246;2023-04-02T16:46:30;4.22;;;2.20;;
23155;SDS011;11746;50.876;4.246;2023-04-02T16:54:01;5.85;;;3.00;;
23155;SDS011;11746;50.876;4.246;2023-04-02T17:08:16;2.80;;;1.83;;
23155;SDS011;11746;50.876;4.246;2023-04-02T17:10:57;3.28;;;1.67;;
23155;SDS011;11746;50.876;4.246;2023-04-02T17:13:31;5.07;;;2.42;;
23155;SDS011;11746;50.876;4.246;2023-04-02T17:18:42;2.45;;;1.50;;
23155;SDS011;11746;50.876;4.246;2023-04-02T17:21:11;4.93;;;2.33;;
23155;SDS011;11746;50.876;4.246;2023-04-02T17:23:45;4.85;;;2.33;;
23155;SDS011;11746;50.876;4.246;2023-04-02T17:26:15;3.28;;;1.83;;
23155;SDS011;11746;50.876;4.246;2023-04-02T17:28:46;2.83;;;1.92;;
23155;SDS011;11746;50.876;4.246;2023-04-02T17:31:24;4.03;;;1.73;;
23155;SDS011;11746;50.876;4.246;2023-04-02T17:33:57;2.45;;;1.40;;
23155;SDS011;11746;50.876;4.246;2023-04-02T17:41:39;3.00;;;1.83;;
23155;SDS011;11746;50.876;4.246;2023-04-02T17:52:28;3.45;;;1.73;;
23155;SDS011;11746;50.876;4.246;2023-04-02T18:08:59;6.53;;;2.00;;
23155;SDS011;11746;50.876;4.246;2023-04-02T18:14:26;2.95;;;1.67;;
23155;SDS011;11746;50.876;4.246;2023-04-02T18:20:14;4.05;;;1.67;;
23155;SDS011;11746;50.876;4.246;2023-04-02T18:25:34;4.32;;;2.00;;
23155;SDS011;11746;50.876;4.246;2023-04-02T18:34:00;7.43;;;3.22;;
23155;SDS011;11746;50.876;4.246;2023-04-02T18:36:35;5.80;;;2.85;;
23155;SDS011;11746;50.876;4.246;2023-04-02T18:39:40;5.88;;;2.75;;
23155;SDS011;11746;50.876;4.246;2023-04-02T18:42:34;6.72;;;2.70;;
23155;SDS011;11746;50.876;4.246;2023-04-02T18:45:11;5.10;;;3.28;;
23155;SDS011;11746;50.876;4.246;2023-04-02T18:50:16;6.28;;;3.03;;
23155;SDS011;11746;50.876;4.246;2023-04-02T18:52:45;4.60;;;2.85;;
23155;SDS011;11746;50.876;4.246;2023-04-02T18:55:19;8.48;;;3.30;;
23155;SDS011;11746;50.876;4.246;2023-04-02T18:57:48;6.00;;;3.42;;
23155;SDS011;11746;50.876;4.246;2023-04-02T19:00:30;7.80;;;3.70;;
23155;SDS011;11746;50.876;4.246;2023-04-02T19:05:57;6.97;;;3.58;;
23155;SDS011;11746;50.876;4.246;2023-04-02T19:08:56;7.07;;;3.40;;
23155;SDS011;11746;50.876;4.246;2023-04-02T19:11:40;6.50;;;3.50;;
23155;SDS011;11746;50.876;4.246;2023-04-02T19:14:10;5.63;;;3.22;;
23155;SDS011;11746;50.876;4.246;2023-04-02T19:19:21;7.15;;;3.67;;
23155;SDS011;11746;50.876;4.246;2023-04-02T19:30:33;4.82;;;3.80;;
23155;SDS011;11746;50.876;4.246;2023-04-02T19:35:35;5.45;;;3.70;;
23155;SDS011;11746;50.876;4.246;2023-04-02T19:43:15;8.15;;;3.95;;
23155;SDS011;11746;50.876;4.246;2023-04-02T19:45:42;6.85;;;4.22;;
23155;SDS011;11746;50.876;4.246;2023-04-02T19:50:50;4.72;;;4.13;;
23155;SDS011;11746;50.876;4.246;2023-04-02T19:53:19;7.30;;;4.43;;
23155;SDS011;11746;50.876;4.246;2023-04-02T19:55:45;6.03;;;4.05;;
23155;SDS011;11746;50.876;4.246;2023-04-02T19:58:30;7.35;;;4.30;;
23155;SDS011;11746;50.876;4.246;2023-04-02T20:00:57;6.85;;;4.22;;
23155;SDS011;11746;50.876;4.246;2023-04-02T20:03:24;4.95;;;4.00;;
23155;SDS011;11746;50.876;4.246;2023-04-02T20:05:50;6.88;;;4.50;;
23155;SDS011;11746;50.876;4.246;2023-04-02T20:08:18;8.02;;;4.20;;
23155;SDS011;11746;50.876;4.246;2023-04-02T20:10:46;7.82;;;4.68;;
23155;SDS011;11746;50.876;4.246;2023-04-02T20:13:12;7.05;;;4.90;;
23155;SDS011;11746;50.876;4.246;2023-04-02T20:15:41;6.53;;;5.05;;
23155;SDS011;11746;50.876;4.246;2023-04-02T20:18:06;8.27;;;4.78;;
23155;SDS011;11746;50.876;4.246;2023-04-02T20:20:33;6.85;;;4.78;;
23155;SDS011;11746;50.876;4.246;2023-04-02T20:23:01;7.63;;;4.80;;
23155;SDS011;11746;50.876;4.246;2023-04-02T20:25:27;7.57;;;5.10;;
23155;SDS011;11746;50.876;4.246;2023-04-02T20:27:58;8.95;;;4.65;;
23155;SDS011;11746;50.876;4.246;2023-04-02T20:30:28;7.93;;;4.95;;
23155;SDS011;11746;50.876;4.246;2023-04-02T20:32:58;7.82;;;5.00;;
23155;SDS011;11746;50.876;4.246;2023-04-02T20:35:23;7.28;;;4.90;;
23155;SDS011;11746;50.876;4.246;2023-04-02T20:37:49;7.32;;;4.55;;
23155;SDS011;11746;50.876;4.246;2023-04-02T20:40:15;6.13;;;4.38;;
23155;SDS011;11746;50.876;4.246;2023-04-02T20:42:43;7.00;;;4.32;;
23155;SDS011;11746;50.876;4.246;2023-04-02T20:45:08;8.02;;;4.20;;
23155;SDS011;11746;50.876;4.246;2023-04-02T20:47:39;6.90;;;3.92;;
23155;SDS011;11746;50.876;4.246;2023-04-02T20:50:05;7.07;;;4.50;;